sensor_id;sensor_type;location;lat;lon;timestamp;noise_LAeq;noise_LA_min;noise_LA_max;noise_LA01;noise_LA95
49732;Laerm;43666;51.442;6.778;2024-01-27T00:00:18;36.76;30.89;39.70;;
49732;Laerm;43666;51.442;6.778;2024-01-27T00:02:45;36.71;31.68;39.70;;
49732;Laerm;43666;51.442;6.778;2024-01-27T00:05:11;36.65;29.92;39.92;;
49732;Laerm;43666;51.442;6.778;2024-01-27T00:07:37;36.70;28.67;39.81;;
49732;Laerm;43666;51.442;6.778;2024-01-27T00:10:03;36.65;29.92;39.58;;
49732;Laerm;43666;51.442;6.778;2024-01-27T00:12:30;36.71;28.67;39.70;;
49732;Laerm;43666;51.442;6.778;2024-01-27T00:14:59;36.68;29.92;39.70;;
49732;Laerm;43666;51.442;6.778;2024-01-27T00:17:26;36.73;30.89;39.70;;
49732;Laerm;43666;51.442;6.778;2024-01-27T00:19:54;36.81;30.89;39.46;;
49732;Laerm;43666;51.442;6.778;2024-01-27T00:22:20;36.94;30.89;40.23;;
49732;Laerm;43666;51.442;6.778;2024-01-27T00:24:46;36.76;31.33;39.92;;
49732;Laerm;43666;51.442;6.778;2024-01-27T00:27:12;36.68;30.89;39.58;;
49732;Laerm;43666;51.442;6.778;2024-01-27T00:29:38;36.75;31.68;39.81;;
49732;Laerm;43666;51.442;6.778;2024-01-27T00:32:04;36.75;30.89;39.92;;
49732;Laerm;43666;51.442;6.778;2024-01-27T00:34:30;36.70;31.68;40.03;;
49732;Laerm;43666;51.442;6.778;2024-01-27T00:36:56;36.71;31.68;39.58;;
49732;Laerm;43666;51.442;6.778;2024-01-27T00:39:25;36.70;26.91;39.92;;
49732;Laerm;43666;51.442;6.778;2024-01-27T00:41:51;36.68;30.89;40.43;;
49732;Laerm;43666;51.442;6.778;2024-01-27T00:44:20;36.74;30.89;40.71;;
49732;Laerm;43666;51.442;6.778;2024-01-27T00:46:48;36.76;31.68;39.81;;
49732;Laerm;43666;51.442;6.778;2024-01-27T00:49:14;36.75;31.68;40.03;;
49732;Laerm;43666;51.442;6.778;2024-01-27T00:51:43;36.72;31.68;39.81;;
49732;Laerm;43666;51.442;6.778;2024-01-27T00:54:11;36.76;31.33;39.92;;
49732;Laerm;43666;51.442;6.778;2024-01-27T00:56:37;36.73;30.89;39.92;;
49732;Laerm;43666;51.442;6.778;2024-01-27T00:59:04;36.69;30.89;39.81;;
49732;Laerm;43666;51.442;6.778;2024-01-27T01:01:30;36.70;31.68;39.70;;
49732;Laerm;43666;51.442;6.778;2024-01-27T01:03:56;36.69;30.89;40.03;;
49732;Laerm;43666;51.442;6.778;2024-01-27T01:06:23;36.69;29.92;39.70;;
49732;Laerm;43666;51.442;6.778;2024-01-27T01:08:49;36.68;31.68;39.70;;
49732;Laerm;43666;51.442;6.778;2024-01-27T01:11:15;36.78;31.33;39.81;;
49732;Laerm;43666;51.442;6.778;2024-01-27T01:13:41;36.73;30.89;39.92;;
49732;Laerm;43666;51.442;6.778;2024-01-27T01:16:08;36.75;29.92;39.92;;
49732;Laerm;43666;51.442;6.778;2024-01-27T01:18:36;36.74;28.67;39.58;;
49732;Laerm;43666;51.442;6.778;2024-01-27T01:21:02;36.71;29.92;39.81;;
49732;Laerm;43666;51.442;6.778;2024-01-27T01:23:29;36.73;30.89;39.70;;
49732;Laerm;43666;51.442;6.778;2024-01-27T01:25:55;36.76;29.92;40.33;;
49732;Laerm;43666;51.442;6.778;2024-01-27T01:28:23;36.73;30.54;40.03;;
49732;Laerm;43666;51.442;6.778;2024-01-27T01:30:49;36.75;30.54;39.70;;
49732;Laerm;43666;51.442;6.778;2024-01-27T01:33:17;36.76;29.92;39.81;;
49732;Laerm;43666;51.442;6.778;2024-01-27T01:35:51;36.73;30.89;39.81;;
49732;Laerm;43666;51.442;6.778;2024-01-27T01:38:18;36.75;28.67;39.58;;
49732;Laerm;43666;51.442;6.778;2024-01-27T01:40:45;36.77;29.92;51.13;;
49732;Laerm;43666;51.442;6.778;2024-01-27T01:43:14;36.68;30.89;39.58;;
49732;Laerm;43666;51.442;6.778;2024-01-27T01:45:40;36.70;28.67;39.81;;
49732;Laerm;43666;51.442;6.778;2024-01-27T01:48:06;36.67;31.68;39.46;;
49732;Laerm;43666;51.442;6.778;2024-01-27T01:50:36;36.75;26.91;39.70;;
49732;Laerm;43666;51.442;6.778;2024-01-27T01:53:02;36.70;29.92;39.58;;
49732;Laerm;43666;51.442;6.778;2024-01-27T01:55:29;36.69;30.89;40.13;;
49732;Laerm;43666;51.442;6.778;2024-01-27T01:57:57;36.75;30.89;39.92;;
49732;Laerm;43666;51.442;6.778;2024-01-27T02:00:23;36.72;29.92;39.81;;
49732;Laerm;43666;51.442;6.778;2024-01-27T02:02:50;36.69;30.89;39.70;;
49732;Laerm;43666;51.442;6.778;2024-01-27T02:05:16;36.73;30.89;39.81;;
49732;Laerm;43666;51.442;6.778;2024-01-27T02:07:43;36.68;28.67;39.70;;
49732;Laerm;43666;51.442;6.778;2024-01-27T02:10:13;36.66;29.92;40.13;;
49732;Laerm;43666;51.442;6.778;2024-01-27T02:12:42;36.61;29.92;39.58;;
49732;Laerm;43666;51.442;6.778;2024-01-27T02:15:09;36.62;28.67;39.70;;
49732;Laerm;43666;51.442;6.778;2024-01-27T02:17:38;36.64;29.92;40.03;;
49732;Laerm;43666;51.442;6.778;2024-01-27T02:20:05;36.60;29.92;40.13;;
49732;Laerm;43666;51.442;6.778;2024-01-27T02:22:33;36.64;29.57;39.58;;
49732;Laerm;43666;51.442;6.778;2024-01-27T02:25:01;36.59;29.92;39.57;;
49732;Laerm;43666;51.442;6.778;2024-01-27T02:27:26;36.58;30.54;39.70;;
49732;Laerm;43666;51.442;6.778;2024-01-27T02:29:53;36.63;29.92;39.46;;
49732;Laerm;43666;51.442;6.778;2024-01-27T02:32:19;36.65;30.89;39.70;;
49732;Laerm;43666;51.442;6.778;2024-01-27T02:34:45;36.63;26.91;39.81;;
49732;Laerm;43666;51.442;6.778;2024-01-27T02:37:12;36.61;30.89;39.58;;
49732;Laerm;43666;51.442;6.778;2024-01-27T02:39:39;36.62;28.67;40.23;;
49732;Laerm;43666;51.442;6.778;2024-01-27T02:42:07;36.55;30.89;39.70;;
49732;Laerm;43666;51.442;6.778;2024-01-27T02:44:33;36.56;29.92;39.81;;
49732;Laerm;43666;51.442;6.778;2024-01-27T02:46:58;36.65;30.89;40.13;;
49732;Laerm;43666;51.442;6.778;2024-01-27T02:49:26;36.58;28.67;39.70;;
49732;Laerm;43666;51.442;6.778;2024-01-27T02:51:52;36.55;29.92;39.58;;
49732;Laerm;43666;51.442;6.778;2024-01-27T02:54:21;36.58;29.92;39.58;;
49732;Laerm;43666;51.442;6.778;2024-01-27T02:56:47;36.52;29.92;39.92;;
49732;Laerm;43666;51.442;6.778;2024-01-27T02:59:13;36.53;30.89;40.23;;
49732;Laerm;43666;51.442;6.778;2024-01-27T03:01:39;36.54;28.67;40.33;;
49732;Laerm;43666;51.442;6.778;2024-01-27T03:04:09;36.49;30.89;39.46;;
49732;Laerm;43666;51.442;6.778;2024-01-27T03:06:35;36.51;30.89;39.58;;
49732;Laerm;43666;51.442;6.778;2024-01-27T03:09:01;36.51;23.90;39.46;;
49732;Laerm;43666;51.442;6.778;2024-01-27T03:11:27;36.51;28.67;39.34;;
49732;Laerm;43666;51.442;6.778;2024-01-27T03:13:54;36.53;28.67;39.81;;
49732;Laerm;43666;51.442;6.778;2024-01-27T03:16:19;36.50;29.92;39.46;;
49732;Laerm;43666;51.442;6.778;2024-01-27T03:18:48;36.52;29.92;39.46;;
49732;Laerm;43666;51.442;6.778;2024-01-27T03:21:14;36.52;29.92;39.81;;
49732;Laerm;43666;51.442;6.778;2024-01-27T03:23:40;36.51;30.89;39.46;;
49732;Laerm;43666;51.442;6.778;2024-01-27T03:26:06;36.59;29.92;53.35;;
49732;Laerm;43666;51.442;6.778;2024-01-27T03:28:32;36.47;30.89;39.58;;
49732;Laerm;43666;51.442;6.778;2024-01-27T03:30:58;36.50;29.92;39.81;;
49732;Laerm;43666;51.442;6.778;2024-01-27T03:33:26;36.47;29.92;40.03;;
49732;Laerm;43666;51.442;6.778;2024-01-27T03:35:52;36.46;28.67;39.81;;
49732;Laerm;43666;51.442;6.778;2024-01-27T03:38:20;36.45;26.91;39.70;;
49732;Laerm;43666;51.442;6.778;2024-01-27T03:40:46;36.47;28.67;39.58;;
49732;Laerm;43666;51.442;6.778;2024-01-27T03:43:13;36.43;29.92;39.46;;
49732;Laerm;43666;51.442;6.778;2024-01-27T03:45:39;36.49;28.67;40.33;;
49732;Laerm;43666;51.442;6.778;2024-01-27T03:48:07;36.49;26.91;39.81;;
49732;Laerm;43666;51.442;6.778;2024-01-27T03:50:33;36.47;29.92;39.46;;
49732;Laerm;43666;51.442;6.778;2024-01-27T03:52:59;36.47;28.67;39.81;;
49732;Laerm;43666;51.442;6.778;2024-01-27T03:55:25;36.51;28.67;39.58;;
49732;Laerm;43666;51.442;6.778;2024-01-27T03:57:51;36.50;29.92;39.46;;
49732;Laerm;43666;51.442;6.778;2024-01-27T04:00:17;36.42;28.67;40.13;;
49732;Laerm;43666;51.442;6.778;2024-01-27T04:02:43;36.44;26.91;39.46;;
49732;Laerm;43666;51.442;6.778;2024-01-27T04:05:12;36.43;28.67;39.81;;
49732;Laerm;43666;51.442;6.778;2024-01-27T04:07:39;36.46;26.91;39.58;;
49732;Laerm;43666;51.442;6.778;2024-01-27T04:10:07;36.41;26.91;39.70;;
49732;Laerm;43666;51.442;6.778;2024-01-27T04:12:33;36.37;28.67;39.21;;
49732;Laerm;43666;51.442;6.778;2024-01-27T04:15:00;36.37;28.67;39.68;;
49732;Laerm;43666;51.442;6.778;2024-01-27T04:17:27;36.36;28.67;39.46;;
49732;Laerm;43666;51.442;6.778;2024-01-27T04:19:53;36.38;29.92;39.46;;
49732;Laerm;43666;51.442;6.778;2024-01-27T04:22:19;36.43;29.92;39.70;;
49732;Laerm;43666;51.442;6.778;2024-01-27T04:24:45;36.42;29.92;39.46;;
49732;Laerm;43666;51.442;6.778;2024-01-27T04:27:11;36.37;28.67;39.81;;
49732;Laerm;43666;51.442;6.778;2024-01-27T04:29:39;36.36;23.90;39.92;;
49732;Laerm;43666;51.442;6.778;2024-01-27T04:32:07;36.41;29.92;39.46;;
49732;Laerm;43666;51.442;6.778;2024-01-27T04:34:34;36.62;28.67;40.23;;
49732;Laerm;43666;51.442;6.778;2024-01-27T04:37:01;36.61;29.92;40.03;;
49732;Laerm;43666;51.442;6.778;2024-01-27T04:39:27;36.58;26.91;39.70;;
49732;Laerm;43666;51.442;6.778;2024-01-27T04:41:56;36.39;28.67;39.46;;
49732;Laerm;43666;51.442;6.778;2024-01-27T04:44:22;36.37;26.91;39.57;;
49732;Laerm;43666;51.442;6.778;2024-01-27T04:46:49;36.37;28.67;40.23;;
49732;Laerm;43666;51.442;6.778;2024-01-27T04:49:16;36.37;30.89;39.58;;
49732;Laerm;43666;51.442;6.778;2024-01-27T04:51:41;36.36;29.92;39.21;;
49732;Laerm;43666;51.442;6.778;2024-01-27T04:54:08;36.33;26.91;39.46;;
49732;Laerm;43666;51.442;6.778;2024-01-27T04:56:33;36.32;28.32;39.46;;
49732;Laerm;43666;51.442;6.778;2024-01-27T04:58:59;36.30;29.57;39.08;;
49732;Laerm;43666;51.442;6.778;2024-01-27T05:01:25;36.37;29.92;39.81;;
49732;Laerm;43666;51.442;6.778;2024-01-27T05:03:51;36.29;28.32;39.34;;
49732;Laerm;43666;51.442;6.778;2024-01-27T05:06:18;36.30;29.92;39.46;;
49732;Laerm;43666;51.442;6.778;2024-01-27T05:08:45;36.30;26.91;39.70;;
49732;Laerm;43666;51.442;6.778;2024-01-27T05:11:11;36.31;28.67;39.34;;
49732;Laerm;43666;51.442;6.778;2024-01-27T05:13:45;36.29;5.00;39.34;;
49732;Laerm;43666;51.442;6.778;2024-01-27T05:16:11;36.31;29.92;39.70;;
49732;Laerm;43666;51.442;6.778;2024-01-27T05:18:37;36.26;29.92;39.46;;
49732;Laerm;43666;51.442;6.778;2024-01-27T05:21:04;36.28;28.67;39.46;;
49732;Laerm;43666;51.442;6.778;2024-01-27T05:23:31;36.30;29.92;39.34;;
49732;Laerm;43666;51.442;6.778;2024-01-27T05:25:57;36.30;29.92;39.92;;
49732;Laerm;43666;51.442;6.778;2024-01-27T05:28:23;36.28;28.67;39.58;;
49732;Laerm;43666;51.442;6.778;2024-01-27T05:30:48;36.24;29.92;39.34;;
49732;Laerm;43666;51.442;6.778;2024-01-27T05:33:17;36.28;29.92;39.58;;
49732;Laerm;43666;51.442;6.778;2024-01-27T05:35:43;36.28;28.67;39.58;;
49732;Laerm;43666;51.442;6.778;2024-01-27T05:38:09;36.26;29.92;39.70;;
49732;Laerm;43666;51.442;6.778;2024-01-27T05:40:35;36.25;29.92;39.70;;
49732;Laerm;43666;51.442;6.778;2024-01-27T05:43:01;36.22;26.91;40.33;;
49732;Laerm;43666;51.442;6.778;2024-01-27T05:45:28;36.23;23.90;39.46;;
49732;Laerm;43666;51.442;6.778;2024-01-27T05:47:54;36.22;26.91;39.46;;
49732;Laerm;43666;51.442;6.778;2024-01-27T05:50:20;36.24;28.67;39.21;;
49732;Laerm;43666;51.442;6.778;2024-01-27T05:52:46;36.22;28.67;39.46;;
49732;Laerm;43666;51.442;6.778;2024-01-27T05:55:13;36.22;29.92;39.70;;
49732;Laerm;43666;51.442;6.778;2024-01-27T05:57:39;36.26;28.32;39.81;;
49732;Laerm;43666;51.442;6.778;2024-01-27T06:00:08;36.21;28.67;39.21;;
49732;Laerm;43666;51.442;6.778;2024-01-27T06:02:35;36.23;28.67;39.34;;
49732;Laerm;43666;51.442;6.778;2024-01-27T06:05:05;36.20;26.91;39.58;;
49732;Laerm;43666;51.442;6.778;2024-01-27T06:07:31;36.20;29.57;39.81;;
49732;Laerm;43666;51.442;6.778;2024-01-27T06:10:00;36.22;28.67;39.46;;
49732;Laerm;43666;51.442;6.778;2024-01-27T06:12:26;36.21;29.92;39.34;;
49732;Laerm;43666;51.442;6.778;2024-01-27T06:14:53;36.27;26.91;39.34;;
49732;Laerm;43666;51.442;6.778;2024-01-27T06:17:19;36.21;29.92;39.58;;
49732;Laerm;43666;51.442;6.778;2024-01-27T06:19:44;36.18;29.92;39.34;;
49732;Laerm;43666;51.442;6.778;2024-01-27T06:22:11;36.22;23.90;39.46;;
49732;Laerm;43666;51.442;6.778;2024-01-27T06:24:42;36.22;28.67;40.13;;
49732;Laerm;43666;51.442;6.778;2024-01-27T06:27:09;36.24;28.32;39.58;;
49732;Laerm;43666;51.442;6.778;2024-01-27T06:29:35;36.47;28.67;60.11;;
49732;Laerm;43666;51.442;6.778;2024-01-27T06:32:01;36.23;28.67;39.70;;
49732;Laerm;43666;51.442;6.778;2024-01-27T06:34:28;36.23;28.67;39.58;;
49732;Laerm;43666;51.442;6.778;2024-01-27T06:36:54;36.20;29.92;39.21;;
49732;Laerm;43666;51.442;6.778;2024-01-27T06:39:20;36.24;28.67;39.70;;
49732;Laerm;43666;51.442;6.778;2024-01-27T06:41:48;36.20;26.91;39.81;;
49732;Laerm;43666;51.442;6.778;2024-01-27T06:44:15;36.19;29.92;39.34;;
49732;Laerm;43666;51.442;6.778;2024-01-27T06:46:41;36.21;28.67;39.70;;
49732;Laerm;43666;51.442;6.778;2024-01-27T06:49:12;36.22;28.67;39.46;;
49732;Laerm;43666;51.442;6.778;2024-01-27T06:51:41;36.27;26.91;39.58;;
49732;Laerm;43666;51.442;6.778;2024-01-27T06:54:07;36.20;23.90;39.58;;
49732;Laerm;43666;51.442;6.778;2024-01-27T06:56:33;36.23;26.91;39.46;;
49732;Laerm;43666;51.442;6.778;2024-01-27T06:59:07;36.22;26.91;39.21;;
49732;Laerm;43666;51.442;6.778;2024-01-27T07:01:33;36.18;29.92;39.46;;
49732;Laerm;43666;51.442;6.778;2024-01-27T07:04:00;36.27;29.92;39.34;;
49732;Laerm;43666;51.442;6.778;2024-01-27T07:06:31;36.22;28.67;39.70;;
49732;Laerm;43666;51.442;6.778;2024-01-27T07:08:58;36.24;28.67;39.34;;
49732;Laerm;43666;51.442;6.778;2024-01-27T07:11:25;36.23;28.67;39.46;;
49732;Laerm;43666;51.442;6.778;2024-01-27T07:14:04;36.22;28.67;39.46;;
49732;Laerm;43666;51.442;6.778;2024-01-27T07:16:30;36.26;28.67;39.58;;
49732;Laerm;43666;51.442;6.778;2024-01-27T07:18:58;36.36;29.92;39.34;;
49732;Laerm;43666;51.442;6.778;2024-01-27T07:21:27;36.19;26.91;39.34;;
49732;Laerm;43666;51.442;6.778;2024-01-27T07:23:55;36.23;26.91;39.46;;
49732;Laerm;43666;51.442;6.778;2024-01-27T07:26:21;36.24;29.92;39.23;;
49732;Laerm;43666;51.442;6.778;2024-01-27T07:28:55;36.24;29.92;39.46;;
49732;Laerm;43666;51.442;6.778;2024-01-27T07:31:22;36.21;26.91;39.81;;
49732;Laerm;43666;51.442;6.778;2024-01-27T07:33:56;36.22;26.91;39.81;;
49732;Laerm;43666;51.442;6.778;2024-01-27T07:36:22;36.24;26.91;39.81;;
49732;Laerm;43666;51.442;6.778;2024-01-27T07:38:48;36.26;29.57;39.46;;
49732;Laerm;43666;51.442;6.778;2024-01-27T07:41:14;36.33;29.92;39.58;;
49732;Laerm;43666;51.442;6.778;2024-01-27T07:43:39;36.24;29.92;39.35;;
49732;Laerm;43666;51.442;6.778;2024-01-27T07:46:06;36.26;26.91;39.46;;
49732;Laerm;43666;51.442;6.778;2024-01-27T07:48:32;36.26;28.67;39.81;;
49732;Laerm;43666;51.442;6.778;2024-01-27T07:50:58;36.30;28.67;39.58;;
49732;Laerm;43666;51.442;6.778;2024-01-27T07:53:24;36.28;28.67;39.46;;
49732;Laerm;43666;51.442;6.778;2024-01-27T07:55:50;36.23;28.67;39.92;;
49732;Laerm;43666;51.442;6.778;2024-01-27T07:58:17;36.26;28.67;39.92;;
49732;Laerm;43666;51.442;6.778;2024-01-27T08:00:43;36.29;28.67;39.58;;
49732;Laerm;43666;51.442;6.778;2024-01-27T08:03:09;36.24;26.91;39.34;;
49732;Laerm;43666;51.442;6.778;2024-01-27T08:05:35;36.29;28.67;39.58;;
49732;Laerm;43666;51.442;6.778;2024-01-27T08:08:01;36.30;28.67;39.34;;
49732;Laerm;43666;51.442;6.778;2024-01-27T08:10:28;36.30;28.67;39.21;;
49732;Laerm;43666;51.442;6.778;2024-01-27T08:12:55;36.34;29.92;39.70;;
49732;Laerm;43666;51.442;6.778;2024-01-27T08:15:22;36.36;28.67;39.58;;
49732;Laerm;43666;51.442;6.778;2024-01-27T08:17:48;36.31;26.91;39.81;;
49732;Laerm;43666;51.442;6.778;2024-01-27T08:20:13;36.32;26.91;40.03;;
49732;Laerm;43666;51.442;6.778;2024-01-27T08:22:39;36.32;28.67;39.46;;
49732;Laerm;43666;51.442;6.778;2024-01-27T08:25:05;36.43;30.89;39.46;;
49732;Laerm;43666;51.442;6.778;2024-01-27T08:27:31;36.29;29.92;39.34;;
49732;Laerm;43666;51.442;6.778;2024-01-27T08:29:57;36.37;28.67;39.70;;
49732;Laerm;43666;51.442;6.778;2024-01-27T08:32:23;36.46;29.92;40.13;;
49732;Laerm;43666;51.442;6.778;2024-01-27T08:34:55;36.36;26.91;39.70;;
49732;Laerm;43666;51.442;6.778;2024-01-27T08:37:21;36.45;28.67;39.70;;
49732;Laerm;43666;51.442;6.778;2024-01-27T08:39:50;36.47;30.89;39.81;;
49732;Laerm;43666;51.442;6.778;2024-01-27T08:42:17;36.34;28.67;39.58;;
49732;Laerm;43666;51.442;6.778;2024-01-27T08:44:43;36.37;23.90;39.92;;
49732;Laerm;43666;51.442;6.778;2024-01-27T08:47:09;36.38;26.91;39.68;;
49732;Laerm;43666;51.442;6.778;2024-01-27T08:49:35;36.36;30.54;39.58;;
49732;Laerm;43666;51.442;6.778;2024-01-27T08:52:00;36.37;23.90;39.58;;
49732;Laerm;43666;51.442;6.778;2024-01-27T08:54:26;36.42;28.67;39.70;;
49732;Laerm;43666;51.442;6.778;2024-01-27T08:56:52;36.60;30.89;54.41;;
49732;Laerm;43666;51.442;6.778;2024-01-27T08:59:19;36.45;28.67;43.63;;
49732;Laerm;43666;51.442;6.778;2024-01-27T09:01:45;36.51;28.67;39.46;;
49732;Laerm;43666;51.442;6.778;2024-01-27T09:04:12;36.54;28.67;39.70;;
49732;Laerm;43666;51.442;6.778;2024-01-27T09:06:38;36.62;28.67;43.24;;
49732;Laerm;43666;51.442;6.778;2024-01-27T09:09:06;36.60;28.67;44.19;;
49732;Laerm;43666;51.442;6.778;2024-01-27T09:11:32;36.43;29.92;39.58;;
49732;Laerm;43666;51.442;6.778;2024-01-27T09:14:00;36.50;29.92;39.70;;
49732;Laerm;43666;51.442;6.778;2024-01-27T09:16:26;36.50;30.89;39.81;;
49732;Laerm;43666;51.442;6.778;2024-01-27T09:18:52;36.50;29.92;39.58;;
49732;Laerm;43666;51.442;6.778;2024-01-27T09:21:19;36.47;29.92;39.70;;
49732;Laerm;43666;51.442;6.778;2024-01-27T09:23:56;36.47;29.92;39.58;;
49732;Laerm;43666;51.442;6.778;2024-01-27T09:26:22;36.50;30.89;39.70;;
49732;Laerm;43666;51.442;6.778;2024-01-27T09:28:49;36.48;28.67;39.46;;
49732;Laerm;43666;51.442;6.778;2024-01-27T09:31:21;36.47;29.92;40.13;;
49732;Laerm;43666;51.442;6.778;2024-01-27T09:33:49;36.52;29.92;42.16;;
49732;Laerm;43666;51.442;6.778;2024-01-27T09:36:16;36.49;26.91;40.23;;
49732;Laerm;43666;51.442;6.778;2024-01-27T09:38:44;36.56;26.91;39.58;;
49732;Laerm;43666;51.442;6.778;2024-01-27T09:41:12;36.57;30.89;39.34;;
49732;Laerm;43666;51.442;6.778;2024-01-27T09:43:41;36.59;30.89;39.92;;
49732;Laerm;43666;51.442;6.778;2024-01-27T09:46:08;36.58;29.92;39.46;;
49732;Laerm;43666;51.442;6.778;2024-01-27T09:48:34;36.58;30.89;40.23;;
49732;Laerm;43666;51.442;6.778;2024-01-27T09:51:01;36.67;30.89;39.70;;
49732;Laerm;43666;51.442;6.778;2024-01-27T09:53:27;36.70;28.67;41.38;;
49732;Laerm;43666;51.442;6.778;2024-01-27T09:55:55;36.65;30.89;39.46;;
49732;Laerm;43666;51.442;6.778;2024-01-27T09:58:22;36.67;30.89;39.92;;
49732;Laerm;43666;51.442;6.778;2024-01-27T10:00:51;36.69;29.92;39.81;;
49732;Laerm;43666;51.442;6.778;2024-01-27T10:03:19;36.73;30.89;39.46;;
49732;Laerm;43666;51.442;6.778;2024-01-27T10:05:46;36.78;31.33;39.70;;
49732;Laerm;43666;51.442;6.778;2024-01-27T10:08:14;36.73;29.92;39.58;;
49732;Laerm;43666;51.442;6.778;2024-01-27T10:10:40;36.73;31.68;39.92;;
49732;Laerm;43666;51.442;6.778;2024-01-27T10:13:06;36.70;30.89;39.46;;
49732;Laerm;43666;51.442;6.778;2024-01-27T10:15:33;36.65;30.89;39.81;;
49732;Laerm;43666;51.442;6.778;2024-01-27T10:18:06;36.67;31.68;40.13;;
49732;Laerm;43666;51.442;6.778;2024-01-27T10:20:42;36.72;30.89;39.70;;
49732;Laerm;43666;51.442;6.778;2024-01-27T10:23:11;36.71;30.89;39.70;;
49732;Laerm;43666;51.442;6.778;2024-01-27T10:25:38;36.73;29.92;39.92;;
49732;Laerm;43666;51.442;6.778;2024-01-27T10:28:07;36.74;30.89;39.70;;
49732;Laerm;43666;51.442;6.778;2024-01-27T10:30:34;36.72;29.92;39.70;;
49732;Laerm;43666;51.442;6.778;2024-01-27T10:33:00;36.75;31.68;40.23;;
49732;Laerm;43666;51.442;6.778;2024-01-27T10:35:26;36.74;30.89;39.81;;
49732;Laerm;43666;51.442;6.778;2024-01-27T10:37:57;36.72;30.89;39.58;;
49732;Laerm;43666;51.442;6.778;2024-01-27T10:40:24;36.76;29.92;39.58;;
49732;Laerm;43666;51.442;6.778;2024-01-27T10:43:01;36.80;29.92;39.81;;
49732;Laerm;43666;51.442;6.778;2024-01-27T10:45:39;36.83;30.89;39.92;;
49732;Laerm;43666;51.442;6.778;2024-01-27T10:48:07;36.77;31.68;39.81;;
49732;Laerm;43666;51.442;6.778;2024-01-27T10:50:37;36.75;31.68;41.53;;
49732;Laerm;43666;51.442;6.778;2024-01-27T10:53:04;36.80;30.89;39.70;;
49732;Laerm;43666;51.442;6.778;2024-01-27T10:55:35;36.79;29.92;39.46;;
49732;Laerm;43666;51.442;6.778;2024-01-27T10:58:04;36.82;31.68;39.81;;
49732;Laerm;43666;51.442;6.778;2024-01-27T11:00:35;36.82;30.89;39.92;;
49732;Laerm;43666;51.442;6.778;2024-01-27T11:03:02;36.80;30.89;39.81;;
49732;Laerm;43666;51.442;6.778;2024-01-27T11:05:35;36.84;29.92;40.03;;
49732;Laerm;43666;51.442;6.778;2024-01-27T11:08:03;36.81;31.68;39.70;;
49732;Laerm;43666;51.442;6.778;2024-01-27T11:10:31;36.81;31.68;40.03;;
49732;Laerm;43666;51.442;6.778;2024-01-27T11:13:02;36.81;29.92;39.81;;
49732;Laerm;43666;51.442;6.778;2024-01-27T11:15:29;36.80;31.68;39.81;;
49732;Laerm;43666;51.442;6.778;2024-01-27T11:17:57;36.81;31.68;39.70;;
49732;Laerm;43666;51.442;6.778;2024-01-27T11:20:22;36.79;29.92;39.81;;
49732;Laerm;43666;51.442;6.778;2024-01-27T11:22:48;36.81;31.68;39.58;;
49732;Laerm;43666;51.442;6.778;2024-01-27T11:25:16;36.85;30.89;39.70;;
49732;Laerm;43666;51.442;6.778;2024-01-27T11:27:43;36.88;31.68;40.23;;
49732;Laerm;43666;51.442;6.778;2024-01-27T11:30:31;36.85;31.68;40.23;;
49732;Laerm;43666;51.442;6.778;2024-01-27T11:33:02;36.85;30.89;41.46;;
49732;Laerm;43666;51.442;6.778;2024-01-27T11:35:30;36.84;31.68;39.70;;
49732;Laerm;43666;51.442;6.778;2024-01-27T11:37:57;36.86;30.89;40.23;;
49732;Laerm;43666;51.442;6.778;2024-01-27T11:40:24;36.86;29.92;39.70;;
49732;Laerm;43666;51.442;6.778;2024-01-27T11:42:57;36.87;31.68;39.81;;
49732;Laerm;43666;51.442;6.778;2024-01-27T11:45:23;36.87;30.89;40.03;;
49732;Laerm;43666;51.442;6.778;2024-01-27T11:47:49;36.88;28.67;39.70;;
49732;Laerm;43666;51.442;6.778;2024-01-27T11:50:17;36.89;30.89;39.58;;
49732;Laerm;43666;51.442;6.778;2024-01-27T11:52:47;36.87;31.68;39.70;;
49732;Laerm;43666;51.442;6.778;2024-01-27T11:55:16;36.83;31.68;39.92;;
49732;Laerm;43666;51.442;6.778;2024-01-27T11:57:43;36.88;31.68;41.06;;
49732;Laerm;43666;51.442;6.778;2024-01-27T12:00:13;36.86;32.35;40.71;;
49732;Laerm;43666;51.442;6.778;2024-01-27T12:02:39;36.85;30.89;39.70;;
49732;Laerm;43666;51.442;6.778;2024-01-27T12:05:06;36.93;31.68;40.13;;
49732;Laerm;43666;51.442;6.778;2024-01-27T12:07:32;36.93;31.68;39.81;;
49732;Laerm;43666;51.442;6.778;2024-01-27T12:09:58;36.87;32.35;40.03;;
49732;Laerm;43666;51.442;6.778;2024-01-27T12:12:25;36.91;30.89;39.81;;
49732;Laerm;43666;51.442;6.778;2024-01-27T12:14:51;36.89;29.92;39.99;;
49732;Laerm;43666;51.442;6.778;2024-01-27T12:17:21;36.92;32.35;40.13;;
49732;Laerm;43666;51.442;6.778;2024-01-27T12:19:49;36.98;31.68;39.70;;
49732;Laerm;43666;51.442;6.778;2024-01-27T12:22:28;36.93;32.35;40.53;;
49732;Laerm;43666;51.442;6.778;2024-01-27T12:24:56;36.90;32.35;39.92;;
49732;Laerm;43666;51.442;6.778;2024-01-27T12:27:22;36.90;30.89;40.03;;
49732;Laerm;43666;51.442;6.778;2024-01-27T12:29:49;36.93;32.93;39.92;;
49732;Laerm;43666;51.442;6.778;2024-01-27T12:32:19;36.96;32.35;40.03;;
49732;Laerm;43666;51.442;6.778;2024-01-27T12:34:45;37.04;32.35;39.89;;
49732;Laerm;43666;51.442;6.778;2024-01-27T12:37:13;37.03;31.68;39.70;;
49732;Laerm;43666;51.442;6.778;2024-01-27T12:39:43;37.03;31.68;39.70;;
49732;Laerm;43666;51.442;6.778;2024-01-27T12:42:11;37.06;32.35;47.55;;
49732;Laerm;43666;51.442;6.778;2024-01-27T12:44:37;37.15;31.68;51.29;;
49732;Laerm;43666;51.442;6.778;2024-01-27T12:47:04;37.15;32.35;44.15;;
49732;Laerm;43666;51.442;6.778;2024-01-27T12:49:30;37.17;32.35;40.23;;
49732;Laerm;43666;51.442;6.778;2024-01-27T12:51:56;37.22;32.35;40.23;;
49732;Laerm;43666;51.442;6.778;2024-01-27T12:54:23;37.23;32.35;39.92;;
49732;Laerm;43666;51.442;6.778;2024-01-27T12:56:50;37.16;32.93;40.23;;
49732;Laerm;43666;51.442;6.778;2024-01-27T12:59:16;37.14;32.35;39.81;;
49732;Laerm;43666;51.442;6.778;2024-01-27T13:01:43;37.24;32.35;40.23;;
49732;Laerm;43666;51.442;6.778;2024-01-27T13:04:12;37.27;32.35;40.33;;
49732;Laerm;43666;51.442;6.778;2024-01-27T13:06:39;37.28;31.68;39.81;;
49732;Laerm;43666;51.442;6.778;2024-01-27T13:09:10;37.27;32.93;39.81;;
49732;Laerm;43666;51.442;6.778;2024-01-27T13:11:39;37.23;33.44;40.13;;
49732;Laerm;43666;51.442;6.778;2024-01-27T13:14:06;37.24;32.35;40.03;;
49732;Laerm;43666;51.442;6.778;2024-01-27T13:16:41;37.21;33.44;40.23;;
49732;Laerm;43666;51.442;6.778;2024-01-27T13:19:10;37.24;32.35;40.23;;
49732;Laerm;43666;51.442;6.778;2024-01-27T13:21:36;37.24;32.35;40.23;;
49732;Laerm;43666;51.442;6.778;2024-01-27T13:24:03;37.27;32.93;39.81;;
49732;Laerm;43666;51.442;6.778;2024-01-27T13:26:29;37.23;32.93;40.13;;
49732;Laerm;43666;51.442;6.778;2024-01-27T13:28:58;37.20;32.35;40.33;;
49732;Laerm;43666;51.442;6.778;2024-01-27T13:31:24;37.26;32.93;40.03;;
49732;Laerm;43666;51.442;6.778;2024-01-27T13:33:50;37.26;32.35;40.33;;
49732;Laerm;43666;51.442;6.778;2024-01-27T13:36:17;37.21;33.09;39.81;;
49732;Laerm;43666;51.442;6.778;2024-01-27T13:38:45;37.18;31.68;40.03;;
49732;Laerm;43666;51.442;6.778;2024-01-27T13:41:15;37.20;32.93;39.70;;
49732;Laerm;43666;51.442;6.778;2024-01-27T13:43:41;37.37;33.90;40.33;;